Time;durP1;ratioP1;P1;durP2;ratioP2;P2;SDS_P1;SDS_P2;PMS_P1;PMS_P2;Temp;Humidity;BMP_temperature;BMP_pressure;BME280_temperature;BME280_humidity;BME280_pressure;Samples;Min_cycle;Max_cycle;Signal;HPM_P1;HPM_P2
2021/03/14 00:01:31;;;;;;;16.23;4.50;;;;;;;-144.99;100.00;52431.78;5068618;28;20276;-74
2021/03/14 00:03:57;;;;;;;7.63;2.40;;;;;;;-144.99;100.00;52435.88;5070216;28;20625;-72
2021/03/14 00:06:23;;;;;;;14.60;3.17;;;;;;;-144.99;100.00;52458.28;5065610;28;20647;-73
2021/03/14 00:08:50;;;;;;;16.60;5.70;;;;;;;-144.99;100.00;52435.88;4720331;28;10000092;-72
2021/03/14 00:11:16;;;;;;;10.70;2.73;;;;;;;-144.99;100.00;52425.66;5072107;28;20209;-73
2021/03/14 00:13:42;;;;;;;12.80;4.27;;;;;;;-144.99;100.00;52431.78;5071719;28;20684;-73
2021/03/14 00:16:09;;;;;;;13.13;6.90;;;;;;;-144.99;100.00;52427.72;5068052;28;20985;-73
2021/03/14 00:18:37;;;;;;;9.93;5.23;;;;;;;-144.99;100.00;52399.19;5070327;28;20197;-73
2021/03/14 00:21:05;;;;;;;11.47;1.93;;;;;;;-144.99;100.00;52419.56;5071005;28;20607;-72
2021/03/14 00:23:31;;;;;;;6.77;1.70;;;;;;;-144.99;100.00;52407.31;5074678;28;20615;-73
2021/03/14 00:25:58;;;;;;;8.00;3.27;;;;;;;-144.99;100.00;52435.88;5078264;28;21164;-74
2021/03/14 00:28:25;;;;;;;6.73;1.67;;;;;;;-144.99;100.00;52415.47;5077587;28;20663;-76
2021/03/14 00:30:52;;;;;;;4.50;1.40;;;;;;;-144.99;100.00;52399.19;5070814;28;20623;-73
2021/03/14 00:33:18;;;;;;;3.53;1.23;;;;;;;-144.99;100.00;52468.47;5074526;28;21170;-73
2021/03/14 00:35:44;;;;;;;5.87;2.23;;;;;;;-144.99;100.00;52431.78;5072258;28;21212;-73
2021/03/14 00:38:11;;;;;;;3.50;1.90;;;;;;;-144.99;100.00;52423.63;5072741;28;20647;-73
2021/03/14 00:40:39;;;;;;;2.83;1.33;;;;;;;-144.99;100.00;52427.72;5072965;28;21191;-74
2021/03/14 00:43:10;;;;;;;3.97;2.40;;;;;;;-144.99;100.00;52435.88;5074237;28;20615;-73
2021/03/14 00:45:37;;;;;;;5.63;1.27;;;;;;;-144.99;100.00;52403.25;5071179;28;20817;-73
2021/03/14 00:48:06;;;;;;;7.53;0.93;;;;;;;-144.99;100.00;52439.94;5072060;28;20642;-72
2021/03/14 00:50:36;;;;;;;2.67;1.20;;;;;;;-144.99;100.00;52458.28;5070970;28;20642;-73
2021/03/14 00:53:02;;;;;;;10.07;2.57;;;;;;;-144.99;100.00;52439.94;5071783;28;20630;-75
2021/03/14 00:55:29;;;;;;;7.97;2.43;;;;;;;-144.99;100.00;52456.25;5071612;28;20672;-75
2021/03/14 00:57:56;;;;;;;4.27;0.97;;;;;;;-144.99;100.00;52448.09;5072009;28;20646;-72
2021/03/14 01:00:24;;;;;;;8.20;1.40;;;;;;;-144.99;100.00;52486.81;5072657;28;21177;-73
2021/03/14 01:02:50;;;;;;;1.20;0.80;;;;;;;-144.99;100.00;52460.31;5069205;28;20619;-73
2021/03/14 01:05:16;;;;;;;4.70;1.70;;;;;;;-144.99;100.00;52419.56;5070902;28;21072;-73
2021/03/14 01:07:42;;;;;;;3.37;1.00;;;;;;;-144.99;100.00;52419.56;5070088;28;20657;-73
2021/03/14 01:10:11;;;;;;;5.13;2.43;;;;;;;-144.99;100.00;52395.09;5073384;28;21310;-72
2021/03/14 01:12:38;;;;;;;7.83;1.40;;;;;;;-144.99;100.00;52407.31;5071588;28;20254;-73
2021/03/14 01:15:06;;;;;;;4.50;1.73;;;;;;;-144.99;100.00;52431.78;5069336;28;20627;-73
2021/03/14 01:17:34;;;;;;;7.07;2.73;;;;;;;-144.99;100.00;52439.94;5069308;28;20700;-73
2021/03/14 01:20:00;;;;;;;6.27;1.60;;;;;;;-144.99;100.00;52427.72;5069053;28;20665;-71
2021/03/14 01:22:26;;;;;;;4.17;1.30;;;;;;;-144.99;100.00;52439.94;5069869;28;20623;-72
2021/03/14 01:24:52;;;;;;;7.67;1.57;;;;;;;-144.99;100.00;52460.31;5069335;28;20615;-71
2021/03/14 01:27:18;;;;;;;3.90;1.23;;;;;;;-144.99;100.00;52462.34;5069241;28;20735;-71
2021/03/14 01:29:44;;;;;;;4.70;1.80;;;;;;;-144.99;100.00;52448.09;5069380;28;20970;-73
2021/03/14 01:32:10;;;;;;;3.17;1.63;;;;;;;-144.99;100.00;52431.78;5068266;28;20236;-71
2021/03/14 01:34:37;;;;;;;3.80;2.00;;;;;;;-144.99;100.00;52401.22;5069135;28;20629;-71
2021/03/14 01:37:03;;;;;;;6.37;1.60;;;;;;;-144.99;100.00;52446.06;5069587;28;20762;-71
2021/03/14 01:39:29;;;;;;;6.73;2.00;;;;;;;-144.99;100.00;52415.47;5068746;28;20611;-71
2021/03/14 01:41:55;;;;;;;6.67;2.27;;;;;;;-144.99;100.00;52444.03;5069522;28;20664;-70
2021/03/14 01:44:21;;;;;;;6.20;1.40;;;;;;;-144.99;100.00;52435.88;5068370;28;20211;-69
2021/03/14 01:46:47;;;;;;;9.10;2.23;;;;;;;-144.99;100.00;52448.09;5068040;28;20635;-72
2021/03/14 01:49:13;;;;;;;5.07;1.20;;;;;;;-144.99;100.00;52468.47;5068776;28;20690;-74
2021/03/14 01:51:41;;;;;;;2.53;1.37;;;;;;;-144.99;100.00;52415.47;5072691;28;20683;-74
2021/03/14 01:54:07;;;;;;;5.67;2.10;;;;;;;-144.99;100.00;52399.19;5071236;28;20653;-75
2021/03/14 01:56:33;;;;;;;9.63;1.90;;;;;;;-144.99;100.00;52413.44;5068027;28;20655;-73
2021/03/14 01:59:01;;;;;;;7.23;2.00;;;;;;;-144.99;100.00;52431.78;5068824;28;20630;-72
2021/03/14 02:01:27;;;;;;;7.23;2.30;;;;;;;-144.99;100.00;52431.78;5066992;28;20622;-72
2021/03/14 02:03:53;;;;;;;7.23;3.07;;;;;;;-144.99;100.00;52468.47;5067691;28;20677;-72
2021/03/14 02:06:19;;;;;;;4.53;2.20;;;;;;;-144.99;100.00;52399.19;5068949;28;20741;-72
2021/03/14 02:08:46;;;;;;;7.47;2.20;;;;;;;-144.99;100.00;52452.16;5070631;28;20217;-71
2021/03/14 02:11:12;;;;;;;14.13;2.87;;;;;;;-144.99;100.00;52427.72;5072239;28;20250;-72
2021/03/14 02:13:41;;;;;;;5.20;1.43;;;;;;;-144.99;100.00;52462.34;5069539;28;20626;-73
2021/03/14 02:16:11;;;;;;;7.17;2.10;;;;;;;-144.99;100.00;52405.28;5066956;28;20630;-73
2021/03/14 02:18:40;;;;;;;6.43;3.60;;;;;;;-144.99;100.00;52435.88;5069137;28;21173;-73
2021/03/14 02:21:07;;;;;;;6.20;2.93;;;;;;;-144.99;100.00;52444.03;5068259;28;20622;-72
2021/03/14 02:23:44;;;;;;;15.93;3.33;;;;;;;-144.99;100.00;52427.72;5068890;28;20611;-72
2021/03/14 02:26:15;;;;;;;8.77;2.23;;;;;;;-144.99;100.00;52431.78;5065241;28;20625;-72
2021/03/14 02:28:42;;;;;;;16.27;4.87;;;;;;;-144.99;100.00;52472.56;5070509;28;20677;-72
2021/03/14 02:31:09;;;;;;;12.90;3.83;;;;;;;-144.99;100.00;52460.31;5076405;22;20698;-75
2021/03/14 02:33:40;;;;;;;11.67;2.70;;;;;;;-144.99;100.00;52431.78;5069468;28;20623;-76
2021/03/14 02:36:09;;;;;;;10.57;2.60;;;;;;;-144.99;100.00;52425.66;5067693;28;20606;-76
2021/03/14 02:38:36;;;;;;;13.60;4.40;;;;;;;-144.99;100.00;52433.81;5075187;28;20668;-75
2021/03/14 02:41:04;;;;;;;10.83;2.93;;;;;;;-144.99;100.00;52433.81;5076159;28;20650;-76
2021/03/14 02:43:32;;;;;;;11.30;4.70;;;;;;;-144.99;100.00;52419.56;5073648;28;20619;-75
2021/03/14 02:46:00;;;;;;;9.23;2.20;;;;;;;-144.99;100.00;52419.56;5081292;28;20610;-74
2021/03/14 02:48:26;;;;;;;6.73;2.03;;;;;;;-144.99;100.00;52417.53;5079834;28;20994;-75
2021/03/14 02:50:53;;;;;;;9.17;2.60;;;;;;;-144.99;100.00;52427.72;5080219;28;20658;-74
2021/03/14 02:53:20;;;;;;;3.03;2.10;;;;;;;-144.99;100.00;52454.22;5083144;28;20629;-74
2021/03/14 02:55:47;;;;;;;9.00;3.33;;;;;;;-144.99;100.00;52403.25;5076868;28;20633;-74
2021/03/14 02:58:14;;;;;;;7.63;3.13;;;;;;;-144.99;100.00;52452.16;5083922;28;21148;-73
2021/03/14 03:00:42;;;;;;;5.73;2.80;;;;;;;-144.99;100.00;52435.88;5072770;28;20650;-77
2021/03/14 03:03:10;;;;;;;5.43;2.80;;;;;;;-144.99;100.00;52468.47;5080812;28;20602;-78
2021/03/14 03:05:36;;;;;;;8.57;3.03;;;;;;;-144.99;100.00;52439.94;5071733;28;20626;-76
2021/03/14 03:08:04;;;;;;;8.83;2.73;;;;;;;-144.99;100.00;52464.41;5074692;28;20619;-75
2021/03/14 03:10:33;;;;;;;7.37;5.00;;;;;;;-144.99;100.00;52431.78;5080775;28;20646;-78
2021/03/14 03:13:00;;;;;;;5.50;4.20;;;;;;;-144.99;100.00;52452.16;5078122;28;20671;-74
2021/03/14 03:15:28;;;;;;;4.93;2.60;;;;;;;-144.99;100.00;52427.72;5077177;28;20987;-79
2021/03/14 03:17:54;;;;;;;7.03;3.20;;;;;;;-144.99;100.00;52427.72;5082802;28;20629;-77
2021/03/14 03:20:22;;;;;;;7.33;2.83;;;;;;;-144.99;100.00;52391.03;5071240;28;20635;-77
2021/03/14 03:22:48;;;;;;;7.70;2.97;;;;;;;-144.99;100.00;52452.16;5078834;28;20622;-77
2021/03/14 03:25:15;;;;;;;7.80;3.80;;;;;;;-144.99;100.00;52448.09;5077517;28;20638;-77
2021/03/14 03:27:41;;;;;;;6.63;2.93;;;;;;;-144.99;100.00;52403.25;5077942;28;20611;-75
2021/03/14 03:30:10;;;;;;;8.07;3.50;;;;;;;-144.99;100.00;52419.56;5072966;28;20666;-75
2021/03/14 03:32:36;;;;;;;8.30;2.60;;;;;;;-144.99;100.00;52415.47;5071054;28;21220;-75
2021/03/14 03:35:04;;;;;;;11.27;3.37;;;;;;;-144.99;100.00;52439.94;5074470;28;20627;-74
2021/03/14 03:37:31;;;;;;;6.43;2.97;;;;;;;-144.99;99.85;52456.25;5081849;28;20743;-74
2021/03/14 03:39:57;;;;;;;7.67;2.83;;;;;;;-144.99;99.39;52427.72;5073089;28;20677;-75
2021/03/14 03:42:27;;;;;;;7.93;3.20;;;;;;;-144.99;99.30;52433.81;5078132;28;20611;-75
2021/03/14 03:44:54;;;;;;;5.50;2.30;;;;;;;-144.99;97.87;52456.25;5078784;28;20629;-74
2021/03/14 03:47:21;;;;;;;6.63;3.57;;;;;;;-144.99;97.85;52448.09;5075735;28;20623;-75
2021/03/14 03:49:51;;;;;;;7.67;2.83;;;;;;;-144.99;97.92;52435.88;5084942;28;20719;-73
2021/03/14 03:52:18;;;;;;;9.97;2.60;;;;;;;-144.99;98.32;52431.78;5068702;28;21055;-74
2021/03/14 03:54:47;;;;;;;6.20;2.90;;;;;;;-144.99;98.79;52391.03;5079969;28;20627;-76
2021/03/14 03:57:15;;;;;;;5.93;3.30;;;;;;;-144.99;99.26;52427.72;5074189;28;20626;-76
2021/03/14 03:59:42;;;;;;;13.30;3.37;;;;;;;-144.99;99.32;52427.72;5075322;28;20661;-76
2021/03/14 04:02:08;;;;;;;8.07;2.87;;;;;;;-144.99;99.68;52431.78;5080086;28;20626;-75
2021/03/14 04:04:37;;;;;;;16.00;2.93;;;;;;;-144.99;100.00;52448.09;5072532;28;20622;-77
2021/03/14 04:07:04;;;;;;;13.60;2.63;;;;;;;-144.99;100.00;52427.72;5072936;28;20677;-77
2021/03/14 04:09:31;;;;;;;13.70;2.67;;;;;;;-144.99;100.00;52431.78;5077528;28;20674;-78
2021/03/14 04:11:58;;;;;;;16.63;4.07;;;;;;;-144.99;100.00;52444.03;5078777;28;20615;-77
2021/03/14 04:14:25;;;;;;;11.53;3.50;;;;;;;-144.99;100.00;52415.47;5080727;28;20614;-78
2021/03/14 04:16:52;;;;;;;8.80;3.00;;;;;;;-144.99;100.00;52427.72;5072439;28;21010;-77
2021/03/14 04:19:21;;;;;;;6.73;2.73;;;;;;;-144.99;100.00;52444.03;5080905;28;20607;-77
2021/03/14 04:21:48;;;;;;;12.20;3.67;;;;;;;-144.99;100.00;52425.66;5074987;28;20991;-77
2021/03/14 04:24:15;;;;;;;9.57;2.67;;;;;;;-144.99;100.00;52452.16;5077411;28;20721;-76
2021/03/14 04:26:44;;;;;;;15.83;3.20;;;;;;;-144.99;100.00;52403.25;5075552;28;21169;-78
2021/03/14 04:29:12;;;;;;;6.23;3.87;;;;;;;-144.99;100.00;52419.56;5070599;28;20643;-74
2021/03/14 04:31:41;;;;;;;7.17;3.13;;;;;;;-144.99;100.00;52423.63;5069662;28;20642;-76
2021/03/14 04:34:08;;;;;;;10.83;3.37;;;;;;;-144.99;100.00;52439.94;5071835;28;20988;-75
2021/03/14 04:36:35;;;;;;;14.23;2.97;;;;;;;-144.99;100.00;52413.44;5076829;28;20637;-75
2021/03/14 04:39:01;;;;;;;10.80;3.03;;;;;;;-144.99;100.00;52456.25;5075374;28;20615;-78
2021/03/14 04:41:27;;;;;;;12.67;5.40;;;;;;;-144.99;100.00;52448.09;5073251;28;20657;-74
2021/03/14 04:43:54;;;;;;;8.37;2.50;;;;;;;-144.99;100.00;52460.31;5077070;28;21147;-75
2021/03/14 04:46:21;;;;;;;9.70;3.60;;;;;;;-144.99;100.00;52431.78;5076476;28;20616;-76
2021/03/14 04:48:47;;;;;;;9.00;4.57;;;;;;;-144.99;100.00;52421.59;5080398;28;20654;-76
2021/03/14 04:51:13;;;;;;;10.47;3.60;;;;;;;-144.99;100.00;52415.47;5075072;28;20828;-74
2021/03/14 04:53:41;;;;;;;14.10;3.07;;;;;;;-144.99;100.00;52431.78;5083240;28;20671;-75
2021/03/14 04:56:09;;;;;;;14.93;3.20;;;;;;;-144.99;100.00;52462.34;5075070;28;20629;-76
2021/03/14 04:58:37;;;;;;;14.90;3.27;;;;;;;-144.99;100.00;52476.63;5080764;28;20619;-76
2021/03/14 05:01:04;;;;;;;12.47;6.20;;;;;;;-144.99;99.76;52401.22;5069371;28;21048;-77
2021/03/14 05:03:31;;;;;;;12.90;3.53;;;;;;;-144.99;99.41;52448.09;5072420;28;20615;-77
2021/03/14 05:05:59;;;;;;;9.63;3.40;;;;;;;-144.99;99.49;52423.63;5069562;28;20634;-77
2021/03/14 05:08:26;;;;;;;15.70;3.43;;;;;;;-144.99;99.38;52441.97;5073310;28;20607;-76
2021/03/14 05:10:52;;;;;;;9.00;2.50;;;;;;;-144.99;99.41;52423.63;5080804;28;20650;-77
2021/03/14 05:13:19;;;;;;;7.50;2.60;;;;;;;-144.99;99.54;52431.78;5077411;28;20610;-76
2021/03/14 05:15:50;;;;;;;13.63;3.83;;;;;;;-144.99;99.76;52407.31;5076274;28;20668;-76
2021/03/14 05:18:17;;;;;;;12.67;3.43;;;;;;;-144.99;100.00;52388.97;5080938;28;20618;-77
2021/03/14 05:20:44;;;;;;;14.83;3.57;;;;;;;-144.99;100.00;52460.31;5074159;28;20646;-78
2021/03/14 05:23:11;;;;;;;15.27;3.73;;;;;;;-144.99;100.00;52405.28;5077915;28;20726;-78
2021/03/14 05:25:39;;;;;;;18.90;8.53;;;;;;;-144.99;100.00;52409.38;5076547;28;21087;-78
2021/03/14 05:28:06;;;;;;;13.10;3.90;;;;;;;-144.99;100.00;52413.44;5077048;28;20776;-79
2021/03/14 05:30:34;;;;;;;11.60;3.00;;;;;;;-144.99;100.00;52472.56;5070923;28;20666;-78
2021/03/14 05:33:04;;;;;;;17.60;4.57;;;;;;;-144.99;100.00;52427.72;5069316;28;20964;-80
2021/03/14 05:35:32;;;;;;;14.60;3.60;;;;;;;-144.99;100.00;52397.13;5071645;28;20637;-76
2021/03/14 05:38:00;;;;;;;20.43;6.47;;;;;;;-144.99;100.00;52427.72;5079074;28;20633;-75
2021/03/14 05:40:28;;;;;;;18.63;7.20;;;;;;;-144.99;100.00;52427.72;5069175;28;20647;-75
2021/03/14 05:42:55;;;;;;;15.63;3.90;;;;;;;-144.99;100.00;52439.94;5076476;28;20615;-78
2021/03/14 05:45:21;;;;;;;14.40;3.77;;;;;;;-144.99;100.00;52391.03;5077951;28;21175;-79
2021/03/14 05:47:51;;;;;;;14.77;4.33;;;;;;;-144.99;100.00;52411.41;5075873;28;20666;-78
2021/03/14 05:50:20;;;;;;;17.47;4.23;;;;;;;-144.99;100.00;52431.78;5078997;28;20698;-79
2021/03/14 05:52:48;;;;;;;13.30;3.60;;;;;;;-144.99;100.00;52395.09;5073582;28;20613;-78
2021/03/14 05:55:17;;;;;;;20.63;6.80;;;;;;;-144.99;100.00;52423.63;5074975;28;20627;-78
2021/03/14 05:57:44;;;;;;;13.43;4.63;;;;;;;-144.99;100.00;52411.41;5081625;28;21208;-78
2021/03/14 06:00:15;;;;;;;12.43;5.23;;;;;;;-144.99;100.00;52448.09;5069403;28;20661;-78
2021/03/14 06:02:43;;;;;;;11.20;2.83;;;;;;;-144.99;100.00;52409.38;5079581;28;21240;-76
2021/03/14 06:05:13;;;;;;;20.13;9.77;;;;;;;-144.99;100.00;52448.09;5063693;28;20619;-78
2021/03/14 06:07:39;;;;;;;20.33;8.87;;;;;;;-144.99;100.00;52431.78;5071494;28;20635;-77
2021/03/14 06:10:07;;;;;;;22.43;4.53;;;;;;;-144.99;100.00;52446.06;5078063;28;20662;-77
2021/03/14 06:12:34;;;;;;;15.27;4.53;;;;;;;-144.99;100.00;52435.88;5073378;28;20957;-78
2021/03/14 06:15:00;;;;;;;14.53;3.97;;;;;;;-144.99;100.00;52429.75;5079006;28;20668;-78
2021/03/14 06:17:27;;;;;;;19.23;4.53;;;;;;;-144.99;100.00;52431.78;5078226;28;21018;-78
2021/03/14 06:19:53;;;;;;;15.23;4.10;;;;;;;-144.99;100.00;52415.47;5080358;28;20209;-78
2021/03/14 06:22:21;;;;;;;17.63;5.30;;;;;;;-144.99;100.00;52484.78;5073319;28;20618;-79
2021/03/14 06:24:48;;;;;;;15.83;4.47;;;;;;;-144.99;100.00;52439.94;5080747;28;20647;-79
2021/03/14 06:27:31;;;;;;;10.13;3.90;;;;;;;-144.99;100.00;52427.72;5085940;28;20671;-79
2021/03/14 06:29:59;;;;;;;18.07;3.47;;;;;;;-144.99;100.00;52439.94;5069449;28;20740;-78
2021/03/14 06:32:25;;;;;;;19.10;5.53;;;;;;;-144.99;100.00;52435.88;5072271;28;20607;-77
2021/03/14 06:35:08;;;;;;;9.97;3.20;;;;;;;-144.99;100.00;52456.25;5075372;28;20646;-78
2021/03/14 06:37:34;;;;;;;16.03;4.50;;;;;;;-144.99;100.00;52435.88;5083148;28;20623;-78
2021/03/14 06:40:07;;;;;;;15.27;3.10;;;;;;;-144.99;100.00;52421.59;5073852;28;20642;-78
2021/03/14 06:42:36;;;;;;;17.60;4.80;;;;;;;-144.99;100.00;52444.03;5077215;28;20997;-78
2021/03/14 06:45:05;;;;;;;10.77;4.23;;;;;;;-144.99;100.00;52448.09;5080948;28;20629;-77
2021/03/14 06:47:43;;;;;;;18.07;3.50;;;;;;;-144.99;100.00;52419.56;5076561;28;20676;-77
2021/03/14 06:50:18;;;;;;;13.53;4.03;;;;;;;-144.99;100.00;52468.47;5083017;28;20654;-76
2021/03/14 06:53:05;;;;;;;20.60;6.83;;;;;;;-144.99;100.00;52468.47;5082137;28;20654;-75
2021/03/14 06:55:31;;;;;;;14.07;3.67;;;;;;;-144.99;100.00;52476.63;5072375;28;21042;-75
2021/03/14 06:58:18;;;;;;;13.07;5.73;;;;;;;-144.99;100.00;52456.25;5086349;28;20629;-75
2021/03/14 07:01:21;;;;;;;17.07;5.30;;;;;;;-144.99;100.00;52452.16;5074321;28;20647;-75
2021/03/14 07:03:51;;;;;;;19.20;5.93;;;;;;;-144.99;100.00;52448.09;5071070;28;21056;-76
2021/03/14 07:06:20;;;;;;;15.87;5.23;;;;;;;-144.99;100.00;52411.41;5071839;28;20626;-76
2021/03/14 07:08:49;;;;;;;7.23;4.43;;;;;;;-144.99;100.00;52464.41;5077167;28;21074;-75
2021/03/14 07:11:34;;;;;;;13.90;3.47;;;;;;;-144.99;100.00;52415.47;5080208;28;20995;-76
2021/03/14 07:14:00;;;;;;;11.70;5.23;;;;;;;-144.99;100.00;52395.09;5075947;28;20621;-75
2021/03/14 07:16:41;;;;;;;15.90;3.50;;;;;;;-144.99;100.00;52444.03;5073793;28;20622;-74
2021/03/14 07:19:07;;;;;;;13.77;3.30;;;;;;;-144.99;100.00;52439.94;5082933;28;21042;-75
2021/03/14 07:21:33;;;;;;;11.20;3.80;;;;;;;-144.99;100.00;52423.63;5080051;28;21229;-75
2021/03/14 07:23:59;;;;;;;11.70;4.60;;;;;;;-144.99;100.00;52431.78;5079833;28;20612;-74
2021/03/14 07:26:45;;;;;;;14.80;5.57;;;;;;;-144.99;100.00;52435.88;5079943;28;20205;-75
2021/03/14 07:29:11;;;;;;;11.87;4.53;;;;;;;-144.99;100.00;52399.19;5072508;28;20724;-74
2021/03/14 07:31:40;;;;;;;7.00;3.37;;;;;;;-144.99;100.00;52466.44;5072059;28;20635;-75
2021/03/14 07:34:07;;;;;;;11.13;5.20;;;;;;;-144.99;100.00;52423.63;5066922;28;20731;-76
2021/03/14 07:36:33;;;;;;;42.30;8.63;;;;;;;-144.99;100.00;52399.19;5077516;28;20637;-77
2021/03/14 07:38:59;;;;;;;13.10;4.30;;;;;;;-144.99;100.00;52429.75;5076650;28;20615;-78
2021/03/14 07:41:26;;;;;;;18.07;4.63;;;;;;;-144.99;100.00;52421.59;5075583;28;20642;-76
2021/03/14 07:43:52;;;;;;;19.77;6.40;;;;;;;-144.99;100.00;52386.94;5078989;28;20628;-76
2021/03/14 07:46:23;;;;;;;18.30;4.57;;;;;;;-144.99;100.00;52456.25;5078402;28;20645;-78
2021/03/14 07:48:52;;;;;;;16.80;4.57;;;;;;;-144.99;100.00;52374.72;5082477;28;20650;-79
2021/03/14 07:51:21;;;;;;;15.60;4.20;;;;;;;-144.99;100.00;52419.56;5078125;28;20649;-77
2021/03/14 07:53:48;;;;;;;10.10;5.40;;;;;;;-144.99;100.00;52415.47;5080555;28;20599;-77
2021/03/14 07:56:14;;;;;;;21.03;5.37;;;;;;;-144.99;100.00;52427.72;5069587;28;20658;-79
2021/03/14 07:58:41;;;;;;;11.47;3.63;;;;;;;-144.99;100.00;52391.03;5083274;28;20742;-79
2021/03/14 08:01:24;;;;;;;10.03;4.10;;;;;;;-144.99;100.00;52419.56;5072603;28;20673;-77
2021/03/14 08:03:52;;;;;;;21.80;4.20;;;;;;;-144.99;100.00;52415.47;5077298;28;20611;-78
2021/03/14 08:06:18;;;;;;;18.53;4.10;;;;;;;-144.99;100.00;52411.41;5071331;28;20627;-78
2021/03/14 08:08:45;;;;;;;14.60;4.67;;;;;;;-144.99;100.00;52407.31;5078811;28;20668;-76
2021/03/14 08:11:24;;;;;;;10.30;3.50;;;;;;;-144.99;100.00;52439.94;5080642;28;20240;-75
2021/03/14 08:13:50;;;;;;;10.50;3.33;;;;;;;-144.99;100.00;52399.19;5077683;28;20618;-78
2021/03/14 08:16:16;;;;;;;15.17;6.13;;;;;;;-144.99;100.00;52380.84;5076430;28;20619;-74
2021/03/14 08:18:46;;;;;;;7.23;2.80;;;;;;;-144.99;100.00;52431.78;5081462;28;20390;-73
2021/03/14 08:21:39;;;;;;;13.40;3.33;;;;;;;-144.99;100.00;52433.81;5074773;28;21036;-72
2021/03/14 08:24:06;;;;;;;17.53;4.00;;;;;;;-144.99;100.00;52419.56;5072968;28;21148;-73
2021/03/14 08:26:34;;;;;;;9.27;2.77;;;;;;;-144.99;100.00;52425.66;5076885;28;20219;-72
2021/03/14 08:29:02;;;;;;;17.93;3.17;;;;;;;-144.99;99.44;52427.72;5075759;28;20203;-70
2021/03/14 08:31:42;;;;;;;9.23;3.50;;;;;;;-144.99;96.64;52374.72;5101161;22;20233;-72
2021/03/14 08:34:09;;;;;;;7.03;2.53;;;;;;;-144.99;96.87;52431.78;5069949;28;20204;-72
2021/03/14 08:36:40;;;;;;;6.93;2.70;;;;;;;-144.99;96.80;52423.63;5069855;28;20201;-72
2021/03/14 08:39:09;;;;;;;9.30;2.80;;;;;;;-144.99;96.78;52378.78;5069626;28;20262;-74
2021/03/14 08:41:39;;;;;;;16.73;3.03;;;;;;;-144.99;96.44;52419.56;5069088;28;20228;-73
2021/03/14 08:44:08;;;;;;;6.27;2.97;;;;;;;-144.99;94.64;52378.78;5070262;28;20212;-73
2021/03/14 08:47:05;;;;;;;7.83;1.93;;;;;;;-144.99;93.99;52378.78;5065092;28;20631;-74
2021/03/14 08:49:32;;;;;;;5.80;1.63;;;;;;;-144.99;94.00;52391.03;5069632;28;20228;-73
2021/03/14 08:51:58;;;;;;;14.80;6.00;;;;;;;-144.99;92.48;52411.41;5069829;28;20274;-76
2021/03/14 08:54:27;;;;;;;7.67;2.10;;;;;;;-144.99;92.17;52362.50;5070052;28;20201;-73
2021/03/14 08:56:58;;;;;;;7.50;3.00;;;;;;;-144.99;91.61;52378.78;5068921;28;20224;-74
2021/03/14 08:59:24;;;;;;;8.60;2.50;;;;;;;-144.99;90.79;52378.78;5068194;28;21213;-74
2021/03/14 09:01:53;;;;;;;9.07;3.13;;;;;;;-144.99;90.35;52376.75;5062933;28;20243;-73
2021/03/14 09:04:21;;;;;;;13.47;2.90;;;;;;;-144.99;90.67;52370.63;5070036;28;20709;-74
2021/03/14 09:06:47;;;;;;;7.17;2.33;;;;;;;-144.99;90.65;52378.78;5069555;28;20201;-74
2021/03/14 09:09:16;;;;;;;13.23;2.73;;;;;;;-144.99;89.30;52395.09;5069701;28;20282;-72
2021/03/14 09:11:46;;;;;;;10.67;3.67;;;;;;;-144.99;89.53;52364.53;4367343;28;10000797;-72
2021/03/14 09:14:23;;;;;;;13.47;2.53;;;;;;;-144.99;88.48;52395.09;5065058;28;20192;-72
2021/03/14 09:16:50;;;;;;;6.80;2.77;;;;;;;-144.99;87.15;52366.56;5065800;28;20200;-71
2021/03/14 09:19:27;;;;;;;6.03;1.90;;;;;;;-144.99;86.33;52380.84;5066436;28;20228;-73
2021/03/14 09:21:55;;;;;;;9.03;2.37;;;;;;;-144.99;85.70;52386.94;5065291;28;20208;-72
2021/03/14 09:24:33;;;;;;;10.00;4.03;;;;;;;-144.99;86.08;52372.69;5066160;28;20385;-73
2021/03/14 09:27:02;;;;;;;14.53;3.07;;;;;;;-144.99;85.27;52399.19;5064414;28;20205;-74
2021/03/14 09:29:53;;;;;;;13.97;2.90;;;;;;;-144.99;85.63;52391.03;5065205;28;20231;-71
2021/03/14 09:32:31;;;;;;;9.73;1.93;;;;;;;-144.99;85.47;52378.78;5060638;28;20273;-71
2021/03/14 09:35:17;;;;;;;23.63;2.93;;;;;;;-144.99;82.55;52391.03;5059578;28;20219;-72
2021/03/14 09:37:44;;;;;;;11.77;3.07;;;;;;;-144.99;82.95;52374.72;5063050;28;20204;-72
2021/03/14 09:40:14;;;;;;;20.07;5.60;;;;;;;-144.99;83.48;52382.88;5065304;28;20244;-73
2021/03/14 09:42:42;;;;;;;16.50;4.67;;;;;;;-144.99;81.93;52342.09;5066694;28;20247;-74
2021/03/14 09:45:10;;;;;;;5.13;2.37;;;;;;;-144.99;81.53;52384.91;5066795;28;20682;-72
2021/03/14 09:47:55;;;;;;;11.40;2.23;;;;;;;-144.99;81.51;52370.63;5075445;28;20209;-72
2021/03/14 09:50:21;;;;;;;7.83;1.80;;;;;;;-144.99;79.15;52317.66;5075975;28;20224;-75
2021/03/14 09:52:48;;;;;;;8.53;2.80;;;;;;;-144.99;78.68;52374.72;5076770;28;20261;-73
2021/03/14 09:55:22;;;;;;;9.40;2.60;;;;;;;-144.99;77.19;52358.41;5069736;28;20737;-73
2021/03/14 09:57:49;;;;;;;8.97;2.70;;;;;;;-144.99;77.76;52415.47;5070708;28;20196;-72
2021/03/14 10:00:20;;;;;;;11.23;2.50;;;;;;;-144.99;78.59;52409.38;5068327;28;20220;-74
2021/03/14 10:02:46;;;;;;;15.00;2.60;;;;;;;-144.99;79.82;52362.50;5069712;28;20196;-74
2021/03/14 10:05:12;;;;;;;8.03;2.73;;;;;;;-144.99;80.13;52362.50;5072058;28;20205;-73
2021/03/14 10:07:38;;;;;;;15.40;4.23;;;;;;;-144.99;80.10;52331.91;5069701;28;20207;-74
2021/03/14 10:10:09;;;;;;;10.23;2.23;;;;;;;-144.99;77.21;52342.09;5068861;28;20221;-72
2021/03/14 10:12:35;;;;;;;8.97;2.83;;;;;;;-144.99;78.48;52313.56;5069394;28;20216;-74
2021/03/14 10:15:04;;;;;;;10.40;1.93;;;;;;;-144.99;74.70;52374.72;5069565;28;20235;-74
2021/03/14 10:17:31;;;;;;;12.17;2.60;;;;;;;-144.99;74.38;52338.03;5068119;28;20204;-74
2021/03/14 10:19:57;;;;;;;14.67;4.47;;;;;;;-144.99;71.94;52313.56;5072047;28;20189;-75
2021/03/14 10:22:30;;;;;;;15.10;3.23;;;;;;;-144.99;71.66;52325.81;5070027;28;20207;-75
2021/03/14 10:24:56;;;;;;;11.67;3.13;;;;;;;-144.99;71.71;52372.69;5070514;28;20223;-74
2021/03/14 10:27:23;;;;;;;7.47;2.80;;;;;;;-144.99;75.58;52370.63;5070344;28;20197;-75
2021/03/14 10:29:56;;;;;;;10.33;1.90;;;;;;;-144.99;78.15;52384.91;5063063;28;20270;-74
2021/03/14 10:32:24;;;;;;;10.63;2.57;;;;;;;-144.99;81.29;52382.88;5068548;28;20224;-75
2021/03/14 10:34:54;;;;;;;12.00;4.33;;;;;;;-144.99;84.50;52376.75;5079646;28;20208;-76
2021/03/14 10:37:28;;;;;;;5.40;2.23;;;;;;;-144.99;86.13;52374.72;5070361;28;20336;-75
2021/03/14 10:39:58;;;;;;;9.80;4.27;;;;;;;-144.99;86.83;52415.47;5070024;28;20250;-77
2021/03/14 10:42:33;;;;;;;8.73;2.77;;;;;;;-144.99;84.96;52391.03;5072035;28;20285;-75
2021/03/14 10:45:00;;;;;;;5.90;1.83;;;;;;;-144.99;85.86;52399.19;5068689;28;20220;-77
2021/03/14 10:47:29;;;;;;;8.63;1.90;;;;;;;-144.99;85.56;52395.09;5069698;28;20676;-75
2021/03/14 10:50:14;;;;;;;9.43;2.77;;;;;;;-144.99;86.84;52421.59;5072418;28;20285;-75
2021/03/14 10:52:40;;;;;;;7.23;3.27;;;;;;;-144.99;88.14;52411.41;5074579;28;20681;-75
2021/03/14 10:55:28;;;;;;;12.10;4.90;;;;;;;-144.99;89.05;52407.31;5070259;28;20205;-77
2021/03/14 10:58:11;;;;;;;7.67;2.40;;;;;;;-144.99;89.66;52429.75;5066760;28;20201;-74
2021/03/14 11:00:41;;;;;;;12.27;2.60;;;;;;;-144.99;90.25;52403.25;5067270;28;20706;-74
2021/03/14 11:03:12;;;;;;;7.50;1.93;;;;;;;-144.99;88.99;52236.13;5070617;28;20235;-75
2021/03/14 11:05:40;;;;;;;9.37;5.00;;;;;;;-144.99;83.38;52370.63;5068809;28;20574;-73
2021/03/14 11:08:09;;;;;;;8.90;1.47;;;;;;;-144.99;82.54;52386.94;5069729;28;20207;-73
2021/03/14 11:10:35;;;;;;;9.73;3.13;;;;;;;-144.99;82.64;52338.03;5069264;28;20300;-76
2021/03/14 11:13:14;;;;;;;8.90;2.13;;;;;;;-144.99;82.81;52382.88;5069648;28;20223;-75
2021/03/14 11:15:40;;;;;;;9.23;3.07;;;;;;;-144.99;81.86;52407.31;5067658;28;20204;-76